createdAt,value
2023-01-02T00:05:36.055Z,13.62
2023-01-02T00:12:22.758Z,13.60
2023-01-02T00:16:28.930Z,13.59
2023-01-02T00:23:36.657Z,13.35
2023-01-02T00:30:33.831Z,13.60
2023-01-02T00:33:46.753Z,13.46
2023-01-02T00:41:20.484Z,13.53
2023-01-02T00:44:24.105Z,13.68
2023-01-02T00:47:35.948Z,13.67
2023-01-02T00:50:57.542Z,13.78
2023-01-02T00:57:45.246Z,13.80
2023-01-02T01:01:01.972Z,13.68
2023-01-02T01:15:06.596Z,13.56
2023-01-02T01:21:10.193Z,13.59
2023-01-02T01:23:43.640Z,13.37
2023-01-02T01:26:37.205Z,13.54
2023-01-02T01:29:30.005Z,13.48
2023-01-02T01:34:06.203Z,13.26
2023-01-02T01:37:28.926Z,13.50
2023-01-02T01:40:45.100Z,13.45
2023-01-02T01:43:38.326Z,13.45
2023-01-02T01:46:24.208Z,13.21
2023-01-02T01:52:57.680Z,13.23
2023-01-02T01:55:45.762Z,13.30
2023-01-02T01:58:35.882Z,13.22
2023-01-02T02:01:22.902Z,13.29
2023-01-02T02:03:51.767Z,13.23
2023-01-02T02:07:45.274Z,13.36
2023-01-02T02:10:16.606Z,13.37
2023-01-02T02:13:16.477Z,13.32
2023-01-02T02:23:35.355Z,13.33
2023-01-02T02:27:29.554Z,13.32
2023-01-02T02:35:08.701Z,13.09
2023-01-02T02:38:24.415Z,13.03
2023-01-02T02:45:06.314Z,12.93
2023-01-02T02:48:14.367Z,12.76
2023-01-02T02:51:37.966Z,12.90
2023-01-02T02:54:22.023Z,12.86
2023-01-02T02:57:49.053Z,12.82
2023-01-02T03:00:55.374Z,12.63
2023-01-02T03:03:33.824Z,12.54
2023-01-02T03:06:54.124Z,12.70
2023-01-02T03:09:36.081Z,12.77
2023-01-02T03:12:40.433Z,12.65
2023-01-02T03:15:28.247Z,12.75
2023-01-02T03:18:30.322Z,12.64
2023-01-02T03:22:05.050Z,12.64
2023-01-02T03:25:17.190Z,12.68
2023-01-02T03:32:10.034Z,12.49
2023-01-02T03:35:05.063Z,12.59
2023-01-02T03:37:35.355Z,12.55
2023-01-02T03:40:29.574Z,12.55
2023-01-02T03:43:57.382Z,12.39
2023-01-02T03:46:36.341Z,12.37
2023-01-02T03:53:30.526Z,12.46
2023-01-02T03:56:56.858Z,12.24
2023-01-02T04:00:11.797Z,12.35
2023-01-02T04:02:57.091Z,12.30
2023-01-02T04:05:33.405Z,12.11
2023-01-02T04:08:33.992Z,12.34
2023-01-02T04:11:06.902Z,12.31
2023-01-02T04:13:40.844Z,12.15
2023-01-02T04:16:09.309Z,12.27
2023-01-02T04:18:47.054Z,12.26
2023-01-02T04:21:52.469Z,12.08
2023-01-02T04:24:51.779Z,12.19
2023-01-02T04:27:33.388Z,12.18
2023-01-02T04:30:28.117Z,12.18
2023-01-02T04:36:34.699Z,11.93
2023-01-02T04:39:57.895Z,12.16
2023-01-02T04:53:40.434Z,12.13
2023-01-02T04:57:13.321Z,12.24
2023-01-02T05:00:41.504Z,12.06
2023-01-02T05:03:59.045Z,12.32
2023-01-02T05:07:08.193Z,12.27
2023-01-02T05:13:51.836Z,12.29
2023-01-02T05:17:02.746Z,12.35
2023-01-02T05:21:25.411Z,12.20
2023-01-02T05:24:19.614Z,12.32
2023-01-02T05:31:16.318Z,12.27
2023-01-02T05:38:22.629Z,11.98
2023-01-02T05:41:31.840Z,12.05
2023-01-02T05:44:39.942Z,11.78
2023-01-02T05:47:37.703Z,11.86
2023-01-02T05:51:19.595Z,11.82
2023-01-02T05:54:24.724Z,11.59
2023-01-02T05:57:51.118Z,11.69
2023-01-02T06:00:43.112Z,11.60
2023-01-02T06:03:26.639Z,11.50
2023-01-02T06:10:27.547Z,11.47
2023-01-02T06:14:05.744Z,11.42
2023-01-02T06:17:24.313Z,11.21
2023-01-02T06:20:33.312Z,11.20
2023-01-02T06:24:09.223Z,11.24
2023-01-02T06:27:35.801Z,11.11
2023-01-02T06:30:46.975Z,11.29
2023-01-02T06:37:57.496Z,11.43
2023-01-02T06:45:02.808Z,11.45
2023-01-02T06:48:04.144Z,11.56
2023-01-02T06:51:31.452Z,11.56
2023-01-02T06:54:42.761Z,11.46
2023-01-02T06:58:09.370Z,11.59
2023-01-02T07:01:55.184Z,11.35
2023-01-02T07:05:11.032Z,11.55
2023-01-02T07:08:20.046Z,11.52
2023-01-02T07:11:51.667Z,11.42
2023-01-02T07:15:11.660Z,11.25
2023-01-02T07:18:23.096Z,11.52
2023-01-02T07:21:34.141Z,11.30
2023-01-02T07:24:20.775Z,11.38
2023-01-02T07:27:52.258Z,11.59
2023-01-02T07:30:31.958Z,11.62
2023-01-02T07:40:32.670Z,11.63
2023-01-02T07:43:44.314Z,11.58
2023-01-02T07:47:13.288Z,11.52
2023-01-02T07:50:20.613Z,11.42
2023-01-02T07:53:34.155Z,11.21
2023-01-02T07:56:38.319Z,11.37
2023-01-02T07:59:41.817Z,11.44
2023-01-02T08:02:14.975Z,11.42
2023-01-02T08:04:46.244Z,11.14
2023-01-02T08:07:20.002Z,11.23
2023-01-02T08:09:52.249Z,11.34
2023-01-02T08:12:29.780Z,11.28
2023-01-02T08:15:01.790Z,11.06
2023-01-02T08:17:41.591Z,11.10
2023-01-02T08:20:18.920Z,11.17
2023-01-02T08:22:47.209Z,11.16
2023-01-02T08:25:51.391Z,11.21
2023-01-02T08:28:52.954Z,11.04
2023-01-02T08:31:28.996Z,10.97
2023-01-02T08:34:08.546Z,10.77
2023-01-02T08:37:03.789Z,10.86
2023-01-02T08:39:57.675Z,10.82
2023-01-02T08:42:43.058Z,10.62
2023-01-02T08:45:13.344Z,10.65
2023-01-02T08:47:41.775Z,10.85
2023-01-02T08:50:34.572Z,10.72
2023-01-02T08:53:12.718Z,10.76
2023-01-02T08:55:41.648Z,10.56
2023-01-02T08:58:11.984Z,10.57
2023-01-02T09:00:45.844Z,10.56
2023-01-02T09:03:41.434Z,10.51
2023-01-02T09:06:21.479Z,10.45
2023-01-02T09:08:52.433Z,10.34
2023-01-02T09:11:24.692Z,10.26
2023-01-02T09:13:53.091Z,10.28
2023-01-02T09:16:21.933Z,10.19
2023-01-02T09:18:50.966Z,10.44
2023-01-02T09:21:21.127Z,10.48
2023-01-02T09:23:58.471Z,10.44
2023-01-02T09:27:00.513Z,10.41
2023-01-02T09:29:57.680Z,10.43
2023-01-02T09:32:36.559Z,10.42
2023-01-02T09:35:20.212Z,10.21
2023-01-02T09:38:02.699Z,10.25
2023-01-02T09:40:39.012Z,10.35
2023-01-02T09:43:15.082Z,10.12
2023-01-02T09:45:46.439Z,10.27
2023-01-02T09:48:18.562Z,10.11
2023-01-02T09:50:49.086Z,10.02
2023-01-02T09:53:20.850Z,10.06
2023-01-02T09:56:03.805Z,10.13
2023-01-02T09:58:36.461Z,10.01
2023-01-02T10:01:12.384Z,9.92
2023-01-02T10:03:46.921Z,9.87
2023-01-02T10:06:19.205Z,10.00
2023-01-02T10:08:57.417Z,10.04
2023-01-02T10:11:34.001Z,10.04
2023-01-02T10:14:21.098Z,9.88
2023-01-02T10:17:13.531Z,10.11
2023-01-02T10:19:46.091Z,10.29
2023-01-02T10:22:22.721Z,10.30
2023-01-02T10:25:01.696Z,10.49
2023-01-02T10:27:37.983Z,10.42
2023-01-02T10:30:10.812Z,10.52
2023-01-02T10:32:39.613Z,10.55
2023-01-02T10:35:46.071Z,10.59
2023-01-02T10:38:19.713Z,10.42
2023-01-02T10:40:50.264Z,10.51
2023-01-02T10:43:21.474Z,10.73
2023-01-02T10:45:49.755Z,10.81
2023-01-02T10:48:23.264Z,10.79
2023-01-02T10:50:57.032Z,10.94
2023-01-02T10:53:35.541Z,11.17
2023-01-02T10:56:07.111Z,11.25
2023-01-02T10:58:36.334Z,11.27
2023-01-02T11:01:06.616Z,11.46
2023-01-02T11:03:49.123Z,11.40
2023-01-02T11:06:38.943Z,11.57
2023-01-02T11:09:19.020Z,11.66
2023-01-02T11:11:59.857Z,11.62
2023-01-02T11:14:34.359Z,11.81
2023-01-02T11:17:17.597Z,11.92
2023-01-02T11:19:49.426Z,11.92
2023-01-02T11:22:20.501Z,12.01
2023-01-02T11:24:59.997Z,12.12
2023-01-02T11:27:40.440Z,12.21
2023-01-02T11:30:38.000Z,12.30
2023-01-02T11:33:33.979Z,12.37
2023-01-02T11:36:22.318Z,12.39
2023-01-02T11:38:56.957Z,12.49
2023-01-02T11:41:50.432Z,12.48
2023-01-02T11:44:25.285Z,12.55
2023-01-02T11:47:09.457Z,12.34
2023-01-02T11:49:40.109Z,12.47
2023-01-02T11:52:11.228Z,12.70
2023-01-02T11:54:47.018Z,12.79
2023-01-02T11:57:19.076Z,12.81
2023-01-02T11:59:49.163Z,12.83
2023-01-02T12:03:22.834Z,12.87
2023-01-02T12:06:09.566Z,12.66
2023-01-02T12:09:02.070Z,12.86
2023-01-02T12:11:48.280Z,12.92
2023-01-02T12:14:18.116Z,13.03
2023-01-02T12:16:53.461Z,13.13
2023-01-02T12:19:47.206Z,13.10
2023-01-02T12:22:28.635Z,13.05
2023-01-02T12:25:13.024Z,13.09
2023-01-02T12:27:46.318Z,13.12
2023-01-02T12:30:15.740Z,13.24
2023-01-02T12:33:22.841Z,13.28
2023-01-02T12:36:31.377Z,13.33
2023-01-02T12:39:32.917Z,13.30
2023-01-02T12:42:06.883Z,13.35
2023-01-02T12:44:46.252Z,13.27
2023-01-02T12:47:28.665Z,13.28
2023-01-02T12:50:16.023Z,13.31
2023-01-02T12:53:04.009Z,13.32
2023-01-02T12:56:03.448Z,13.30
2023-01-02T12:59:08.813Z,13.30
2023-01-02T13:02:12.776Z,13.25
2023-01-02T13:04:42.318Z,13.14
2023-01-02T13:07:15.348Z,13.12
2023-01-02T13:09:45.177Z,13.15
2023-01-02T13:12:44.014Z,13.25
2023-01-02T13:15:18.279Z,13.17
2023-01-02T13:18:01.391Z,13.00
2023-01-02T13:20:46.331Z,13.22
2023-01-02T13:23:30.788Z,13.23
2023-01-02T13:29:52.264Z,13.55
2023-01-02T13:32:50.683Z,13.68
2023-01-02T13:35:19.195Z,13.68
2023-01-02T13:38:06.596Z,13.66
2023-01-02T13:40:48.931Z,13.88
2023-01-02T13:43:20.673Z,13.95
2023-01-02T13:45:57.489Z,13.81
2023-01-02T13:48:44.325Z,13.79
2023-01-02T13:51:15.652Z,13.49
2023-01-02T13:53:49.034Z,13.59
2023-01-02T13:56:36.775Z,13.50
2023-01-02T13:59:41.862Z,13.41
2023-01-02T14:02:17.368Z,13.45
2023-01-02T14:04:47.920Z,13.43
2023-01-02T14:07:49.589Z,13.45
2023-01-02T14:10:36.566Z,13.38
2023-01-02T14:13:29.706Z,13.26
2023-01-02T14:16:37.142Z,13.16
2023-01-02T14:19:19.831Z,13.20
2023-01-02T14:21:54.085Z,13.38
2023-01-02T14:24:30.263Z,13.45
2023-01-02T14:27:02.128Z,13.48
2023-01-02T14:29:35.621Z,13.57
2023-01-02T14:32:06.139Z,13.67
2023-01-02T14:34:36.202Z,13.77
2023-01-02T14:37:04.291Z,13.84
2023-01-02T14:39:36.933Z,13.96
2023-01-02T14:42:58.085Z,13.98
2023-01-02T14:45:28.355Z,14.02
2023-01-02T14:47:59.443Z,13.95
2023-01-02T14:50:30.387Z,13.89
2023-01-02T14:53:03.489Z,13.72
2023-01-02T14:55:41.194Z,13.77
2023-01-02T14:58:17.940Z,13.65
2023-01-02T15:00:47.969Z,13.69
2023-01-02T15:03:20.737Z,13.74
2023-01-02T15:05:50.788Z,13.73
2023-01-02T15:08:20.342Z,13.66
2023-01-02T15:11:19.620Z,13.57
2023-01-02T15:14:03.913Z,13.47
2023-01-02T15:16:39.250Z,13.50
2023-01-02T15:19:07.266Z,13.45
2023-01-02T15:21:39.679Z,13.45
2023-01-02T15:24:15.924Z,13.43
2023-01-02T15:26:45.108Z,13.38
2023-01-02T15:29:22.679Z,13.31
2023-01-02T15:31:56.385Z,13.33
2023-01-02T15:34:29.466Z,13.27
2023-01-02T15:36:58.623Z,13.24
2023-01-02T15:39:36.336Z,13.18
2023-01-02T15:42:28.283Z,13.22
2023-01-02T15:45:10.479Z,13.20
2023-01-02T15:47:40.725Z,13.12
2023-01-02T15:50:14.089Z,13.12
2023-01-02T15:52:42.188Z,13.04
2023-01-02T15:55:17.636Z,13.08
2023-01-02T15:57:50.783Z,12.99
2023-01-02T16:00:36.126Z,13.02
2023-01-02T16:03:07.814Z,12.97
2023-01-02T16:05:46.411Z,12.95
2023-01-02T16:08:18.943Z,12.81
2023-01-02T16:10:51.598Z,12.78
2023-01-02T16:13:38.597Z,12.72
2023-01-02T16:16:16.768Z,12.60
2023-01-02T16:18:50.164Z,12.49
2023-01-02T16:21:25.876Z,12.31
2023-01-02T16:23:54.506Z,12.28
2023-01-02T16:26:31.456Z,12.20
2023-01-02T16:29:07.565Z,12.08
2023-01-02T16:31:54.734Z,11.95
2023-01-02T16:34:33.845Z,11.73
2023-01-02T16:37:35.206Z,11.79
2023-01-02T16:41:00.170Z,11.65
2023-01-02T16:43:31.062Z,11.50
2023-01-02T16:45:59.968Z,11.34
2023-01-02T16:48:29.949Z,11.30
2023-01-02T16:50:59.690Z,11.24
2023-01-02T16:53:29.670Z,11.14
2023-01-02T16:56:07.485Z,11.13
2023-01-02T16:58:35.564Z,11.04
2023-01-02T17:01:06.047Z,10.89
2023-01-02T17:03:34.518Z,10.89
2023-01-02T17:06:04.779Z,10.83
2023-01-02T17:08:33.027Z,10.72
2023-01-02T17:11:02.711Z,10.66
2023-01-02T17:13:43.964Z,10.51
2023-01-02T17:16:12.293Z,10.51
2023-01-02T17:18:53.852Z,10.42
2023-01-02T17:21:27.721Z,10.39
2023-01-02T17:24:17.812Z,10.29
2023-01-02T17:34:10.744Z,9.86
2023-01-02T17:37:04.012Z,9.67
2023-01-02T17:39:33.823Z,9.78
2023-01-02T17:42:03.691Z,9.80
2023-01-02T17:44:35.130Z,9.69
2023-01-02T17:47:48.212Z,9.67
2023-01-02T17:49:55.820Z,9.55
2023-01-02T17:52:26.964Z,9.53
2023-01-02T17:54:57.224Z,9.53
2023-01-02T17:57:27.228Z,9.50
2023-01-02T17:59:55.589Z,9.45
2023-01-02T18:02:23.745Z,9.41
2023-01-02T18:04:55.457Z,9.36
2023-01-02T18:07:26.921Z,9.24
2023-01-02T18:10:09.070Z,9.24
2023-01-02T18:12:38.920Z,9.24
2023-01-02T18:15:13.940Z,9.22
2023-01-02T18:17:42.173Z,9.13
2023-01-02T18:20:13.973Z,9.07
2023-01-02T18:22:49.729Z,9.01
2023-01-02T18:25:27.266Z,8.95
2023-01-02T18:27:56.439Z,8.96
2023-01-02T18:30:39.059Z,8.95
2023-01-02T18:33:12.512Z,8.84
2023-01-02T18:35:59.348Z,8.89
2023-01-02T18:38:32.252Z,8.76
2023-01-02T18:41:05.590Z,8.93
2023-01-02T18:43:35.849Z,8.80
2023-01-02T18:46:12.180Z,8.99
2023-01-02T18:48:41.475Z,8.96
2023-01-02T18:51:14.613Z,8.86
2023-01-02T18:53:47.222Z,8.73
2023-01-02T18:56:18.117Z,8.79
2023-01-02T18:58:51.557Z,8.97
2023-01-02T19:01:24.820Z,8.98
2023-01-02T19:04:27.156Z,8.91
2023-01-02T19:07:01.399Z,9.13
2023-01-02T19:09:36.525Z,9.16
2023-01-02T19:13:00.328Z,9.15
2023-01-02T19:15:44.053Z,9.24
2023-01-02T19:18:55.305Z,9.58
2023-01-02T19:25:28.567Z,9.67
2023-01-02T19:28:09.221Z,9.44
2023-01-02T19:30:55.429Z,9.61
2023-01-02T19:33:44.945Z,9.66
2023-01-02T19:36:47.231Z,9.75
2023-01-02T19:39:46.268Z,9.75
2023-01-02T19:42:35.668Z,9.74
2023-01-02T19:45:35.303Z,9.84
2023-01-02T19:48:06.896Z,9.78
2023-01-02T19:50:40.447Z,9.73
2023-01-02T19:53:11.358Z,9.96
2023-01-02T19:55:40.072Z,9.97
2023-01-02T19:58:37.490Z,10.04
2023-01-02T20:01:34.182Z,9.92
2023-01-02T20:04:02.670Z,10.13
2023-01-02T20:06:36.580Z,10.21
2023-01-02T20:09:10.656Z,10.25
2023-01-02T20:12:07.561Z,10.26
2023-01-02T20:14:37.556Z,10.13
2023-01-02T20:20:05.023Z,10.28
2023-01-02T20:22:33.322Z,10.32
2023-01-02T20:25:04.315Z,10.63
2023-01-02T20:27:32.698Z,10.56
2023-01-02T20:30:02.352Z,10.72
2023-01-02T20:32:38.059Z,10.68
2023-01-02T20:35:10.505Z,10.76
2023-01-02T20:37:42.157Z,10.78
2023-01-02T20:40:13.655Z,10.84
2023-01-02T20:42:42.021Z,10.77
2023-01-02T20:45:42.356Z,10.95
2023-01-02T20:48:46.141Z,10.75
2023-01-02T20:51:43.882Z,10.84
2023-01-02T20:54:44.452Z,11.08
2023-01-02T21:01:03.658Z,10.92
2023-01-02T21:04:07.773Z,11.03
2023-01-02T21:06:42.344Z,10.88
2023-01-02T21:09:10.552Z,11.03
2023-01-02T21:11:39.261Z,11.11
2023-01-02T21:14:09.864Z,11.03
2023-01-02T21:16:43.651Z,11.11
2023-01-02T21:19:31.009Z,10.98
2023-01-02T21:22:29.654Z,11.05
2023-01-02T21:25:21.236Z,11.12
2023-01-02T21:28:03.950Z,10.87
2023-01-02T21:30:33.946Z,10.96
2023-01-02T21:33:06.006Z,10.92
2023-01-02T21:35:34.365Z,10.95
2023-01-02T21:38:02.375Z,10.96
2023-01-02T21:40:31.867Z,10.95
2023-01-02T21:43:00.137Z,10.95
2023-01-02T21:45:28.045Z,10.91
2023-01-02T21:47:57.312Z,10.82
2023-01-02T21:50:29.066Z,10.82
2023-01-02T21:52:58.794Z,10.77
2023-01-02T21:55:28.684Z,10.79
2023-01-02T21:58:14.640Z,10.75
2023-01-02T22:00:45.303Z,10.69
2023-01-02T22:03:13.684Z,10.70
2023-01-02T22:05:48.328Z,10.69
2023-01-02T22:08:16.545Z,10.61
2023-01-02T22:10:45.238Z,10.60
2023-01-02T22:13:17.414Z,10.58
2023-01-02T22:15:46.108Z,10.56
2023-01-02T22:18:17.057Z,10.61
2023-01-02T22:20:46.565Z,10.54
2023-01-02T22:23:14.899Z,10.56
2023-01-02T22:25:42.883Z,10.55
2023-01-02T22:28:15.546Z,10.50
2023-01-02T22:30:43.626Z,10.53
2023-01-02T22:33:12.268Z,10.58
2023-01-02T22:35:40.287Z,10.54
2023-01-02T22:38:09.810Z,10.50
2023-01-02T22:40:40.685Z,10.53
2023-01-02T22:43:10.696Z,10.50
2023-01-02T22:45:43.832Z,10.46
2023-01-02T22:48:18.151Z,10.47
2023-01-02T22:50:46.663Z,10.49
2023-01-02T22:53:25.772Z,10.50
2023-01-02T22:55:54.142Z,10.48
2023-01-02T22:58:22.664Z,10.46
2023-01-02T23:00:58.645Z,10.46
2023-01-02T23:03:31.259Z,10.52
2023-01-02T23:06:01.613Z,10.50
2023-01-02T23:08:33.750Z,10.41
2023-01-02T23:11:03.817Z,10.41
2023-01-02T23:13:34.879Z,10.43
2023-01-02T23:16:20.869Z,10.41
2023-01-02T23:19:06.760Z,10.38
2023-01-02T23:21:37.563Z,10.40
2023-01-02T23:24:09.338Z,10.44
2023-01-02T23:26:39.529Z,10.39
2023-01-02T23:29:08.838Z,10.49
2023-01-02T23:31:39.887Z,10.44
2023-01-02T23:34:08.955Z,10.46
2023-01-02T23:36:39.666Z,10.52
2023-01-02T23:39:54.751Z,10.31
2023-01-02T23:42:33.851Z,10.47
2023-01-02T23:45:07.836Z,10.42
2023-01-02T23:47:56.248Z,10.47
2023-01-02T23:50:37.004Z,10.40
2023-01-02T23:53:11.606Z,10.47
2023-01-02T23:56:16.338Z,10.55
2023-01-02T23:58:57.092Z,10.50
